sensor_id;sensor_type;location;lat;lon;timestamp;P1;durP1;ratioP1;P2;durP2;ratioP2
17171;SDS011;8701;50.150;8.756;2023-04-25T00:01:12;11.07;;;6.73;;
17171;SDS011;8701;50.150;8.756;2023-04-25T00:05:15;11.17;;;6.70;;
17171;SDS011;8701;50.150;8.756;2023-04-25T00:09:18;11.20;;;6.00;;
17171;SDS011;8701;50.150;8.756;2023-04-25T00:13:21;11.80;;;6.73;;
17171;SDS011;8701;50.150;8.756;2023-04-25T00:17:23;10.47;;;5.93;;
17171;SDS011;8701;50.150;8.756;2023-04-25T00:21:26;13.43;;;6.50;;
17171;SDS011;8701;50.150;8.756;2023-04-25T00:25:30;17.60;;;7.37;;
17171;SDS011;8701;50.150;8.756;2023-04-25T00:29:32;9.83;;;6.40;;
17171;SDS011;8701;50.150;8.756;2023-04-25T00:33:35;12.87;;;6.30;;
17171;SDS011;8701;50.150;8.756;2023-04-25T00:37:37;11.60;;;7.20;;
17171;SDS011;8701;50.150;8.756;2023-04-25T00:41:40;12.13;;;7.13;;
17171;SDS011;8701;50.150;8.756;2023-04-25T00:45:43;11.00;;;6.53;;
17171;SDS011;8701;50.150;8.756;2023-04-25T00:49:48;12.10;;;6.97;;
17171;SDS011;8701;50.150;8.756;2023-04-25T00:53:50;12.83;;;6.87;;
17171;SDS011;8701;50.150;8.756;2023-04-25T00:57:54;13.13;;;7.03;;
17171;SDS011;8701;50.150;8.756;2023-04-25T01:01:56;12.00;;;6.70;;
17171;SDS011;8701;50.150;8.756;2023-04-25T01:05:59;10.97;;;6.63;;
17171;SDS011;8701;50.150;8.756;2023-04-25T01:10:02;12.47;;;6.43;;
17171;SDS011;8701;50.150;8.756;2023-04-25T01:14:06;10.97;;;6.40;;
17171;SDS011;8701;50.150;8.756;2023-04-25T01:18:09;10.40;;;5.90;;
17171;SDS011;8701;50.150;8.756;2023-04-25T01:22:13;11.60;;;6.57;;
17171;SDS011;8701;50.150;8.756;2023-04-25T01:26:16;10.93;;;6.00;;
17171;SDS011;8701;50.150;8.756;2023-04-25T01:30:19;11.03;;;6.20;;
17171;SDS011;8701;50.150;8.756;2023-04-25T01:34:21;9.97;;;5.50;;
17171;SDS011;8701;50.150;8.756;2023-04-25T01:38:25;9.63;;;5.77;;
17171;SDS011;8701;50.150;8.756;2023-04-25T01:42:28;10.90;;;6.43;;
17171;SDS011;8701;50.150;8.756;2023-04-25T01:46:30;10.73;;;5.80;;
17171;SDS011;8701;50.150;8.756;2023-04-25T01:50:33;13.20;;;5.67;;
17171;SDS011;8701;50.150;8.756;2023-04-25T01:54:37;11.67;;;6.73;;
17171;SDS011;8701;50.150;8.756;2023-04-25T01:58:45;11.77;;;5.23;;
17171;SDS011;8701;50.150;8.756;2023-04-25T02:03:05;11.33;;;6.10;;
17171;SDS011;8701;50.150;8.756;2023-04-25T02:07:09;12.97;;;6.13;;
17171;SDS011;8701;50.150;8.756;2023-04-25T02:11:23;11.53;;;6.60;;
17171;SDS011;8701;50.150;8.756;2023-04-25T02:15:38;11.77;;;6.47;;
17171;SDS011;8701;50.150;8.756;2023-04-25T02:19:51;12.40;;;6.47;;
17171;SDS011;8701;50.150;8.756;2023-04-25T02:23:54;10.50;;;5.63;;
17171;SDS011;8701;50.150;8.756;2023-04-25T02:27:57;9.30;;;5.60;;
17171;SDS011;8701;50.150;8.756;2023-04-25T02:32:00;12.30;;;5.70;;
17171;SDS011;8701;50.150;8.756;2023-04-25T02:36:02;9.23;;;5.37;;
17171;SDS011;8701;50.150;8.756;2023-04-25T02:40:05;10.67;;;6.23;;
17171;SDS011;8701;50.150;8.756;2023-04-25T02:44:10;9.20;;;5.23;;
17171;SDS011;8701;50.150;8.756;2023-04-25T02:48:12;14.00;;;5.90;;
17171;SDS011;8701;50.150;8.756;2023-04-25T02:52:14;8.97;;;5.20;;
17171;SDS011;8701;50.150;8.756;2023-04-25T02:56:19;12.20;;;5.27;;
17171;SDS011;8701;50.150;8.756;2023-04-25T03:00:22;13.10;;;5.13;;
17171;SDS011;8701;50.150;8.756;2023-04-25T03:04:25;9.23;;;5.30;;
17171;SDS011;8701;50.150;8.756;2023-04-25T03:08:27;8.83;;;5.03;;
17171;SDS011;8701;50.150;8.756;2023-04-25T03:12:34;11.50;;;5.53;;
17171;SDS011;8701;50.150;8.756;2023-04-25T03:16:37;8.70;;;5.07;;
17171;SDS011;8701;50.150;8.756;2023-04-25T03:20:40;9.60;;;6.10;;
17171;SDS011;8701;50.150;8.756;2023-04-25T03:24:43;11.80;;;5.80;;
17171;SDS011;8701;50.150;8.756;2023-04-25T03:28:45;10.13;;;5.77;;
17171;SDS011;8701;50.150;8.756;2023-04-25T03:32:49;12.43;;;5.93;;
17171;SDS011;8701;50.150;8.756;2023-04-25T03:36:52;10.20;;;5.90;;
17171;SDS011;8701;50.150;8.756;2023-04-25T03:40:54;11.37;;;6.10;;
17171;SDS011;8701;50.150;8.756;2023-04-25T03:45:09;14.40;;;6.47;;
17171;SDS011;8701;50.150;8.756;2023-04-25T03:49:13;10.87;;;5.63;;
17171;SDS011;8701;50.150;8.756;2023-04-25T03:53:30;10.30;;;6.10;;
17171;SDS011;8701;50.150;8.756;2023-04-25T03:58:01;10.37;;;5.90;;
17171;SDS011;8701;50.150;8.756;2023-04-25T04:02:04;12.87;;;6.00;;
17171;SDS011;8701;50.150;8.756;2023-04-25T04:06:09;12.00;;;6.07;;
17171;SDS011;8701;50.150;8.756;2023-04-25T04:10:16;13.17;;;5.23;;
17171;SDS011;8701;50.150;8.756;2023-04-25T04:14:18;14.47;;;6.03;;
17171;SDS011;8701;50.150;8.756;2023-04-25T04:18:23;11.00;;;4.30;;
17171;SDS011;8701;50.150;8.756;2023-04-25T04:22:26;16.63;;;5.50;;
17171;SDS011;8701;50.150;8.756;2023-04-25T04:26:32;13.13;;;5.77;;
17171;SDS011;8701;50.150;8.756;2023-04-25T04:30:44;11.73;;;5.03;;
17171;SDS011;8701;50.150;8.756;2023-04-25T04:34:47;18.93;;;5.33;;
17171;SDS011;8701;50.150;8.756;2023-04-25T04:38:53;17.03;;;5.57;;
17171;SDS011;8701;50.150;8.756;2023-04-25T04:43:08;20.00;;;6.67;;
17171;SDS011;8701;50.150;8.756;2023-04-25T04:47:29;10.07;;;5.63;;
17171;SDS011;8701;50.150;8.756;2023-04-25T04:51:53;14.30;;;6.03;;
17171;SDS011;8701;50.150;8.756;2023-04-25T04:56:12;11.30;;;5.37;;
17171;SDS011;8701;50.150;8.756;2023-04-25T05:00:21;16.20;;;6.90;;
17171;SDS011;8701;50.150;8.756;2023-04-25T05:04:49;13.67;;;5.40;;
17171;SDS011;8701;50.150;8.756;2023-04-25T05:09:04;10.00;;;5.30;;
17171;SDS011;8701;50.150;8.756;2023-04-25T05:13:26;14.10;;;5.70;;
17171;SDS011;8701;50.150;8.756;2023-04-25T05:17:43;13.03;;;6.43;;
17171;SDS011;8701;50.150;8.756;2023-04-25T05:22:04;14.43;;;6.70;;
17171;SDS011;8701;50.150;8.756;2023-04-25T05:26:13;19.83;;;6.43;;
17171;SDS011;8701;50.150;8.756;2023-04-25T05:30:37;17.87;;;6.00;;
17171;SDS011;8701;50.150;8.756;2023-04-25T05:35:02;10.57;;;5.30;;
17171;SDS011;8701;50.150;8.756;2023-04-25T05:39:11;14.17;;;5.60;;
17171;SDS011;8701;50.150;8.756;2023-04-25T05:43:36;12.10;;;5.17;;
17171;SDS011;8701;50.150;8.756;2023-04-25T05:47:57;10.50;;;4.87;;
17171;SDS011;8701;50.150;8.756;2023-04-25T05:52:25;14.10;;;5.00;;
17171;SDS011;8701;50.150;8.756;2023-04-25T05:56:42;11.17;;;4.70;;
17171;SDS011;8701;50.150;8.756;2023-04-25T06:00:44;9.93;;;4.90;;
17171;SDS011;8701;50.150;8.756;2023-04-25T06:04:49;10.47;;;4.07;;
17171;SDS011;8701;50.150;8.756;2023-04-25T06:08:51;14.90;;;4.50;;
17171;SDS011;8701;50.150;8.756;2023-04-25T06:12:54;8.40;;;3.80;;
17171;SDS011;8701;50.150;8.756;2023-04-25T06:16:57;10.53;;;3.73;;
17171;SDS011;8701;50.150;8.756;2023-04-25T06:21:02;8.57;;;3.40;;
17171;SDS011;8701;50.150;8.756;2023-04-25T06:25:05;10.03;;;3.63;;
17171;SDS011;8701;50.150;8.756;2023-04-25T06:29:08;16.67;;;3.57;;
17171;SDS011;8701;50.150;8.756;2023-04-25T06:33:11;7.07;;;3.40;;
17171;SDS011;8701;50.150;8.756;2023-04-25T06:37:17;8.90;;;2.87;;
17171;SDS011;8701;50.150;8.756;2023-04-25T06:41:19;10.40;;;3.70;;
17171;SDS011;8701;50.150;8.756;2023-04-25T06:45:22;8.00;;;3.30;;
17171;SDS011;8701;50.150;8.756;2023-04-25T06:49:24;8.63;;;3.63;;
17171;SDS011;8701;50.150;8.756;2023-04-25T06:53:28;8.97;;;3.27;;
17171;SDS011;8701;50.150;8.756;2023-04-25T06:57:34;11.67;;;3.00;;
17171;SDS011;8701;50.150;8.756;2023-04-25T07:01:56;9.50;;;3.10;;
17171;SDS011;8701;50.150;8.756;2023-04-25T07:06:00;8.60;;;3.23;;
17171;SDS011;8701;50.150;8.756;2023-04-25T07:10:05;10.10;;;3.50;;
17171;SDS011;8701;50.150;8.756;2023-04-25T07:14:07;8.20;;;3.00;;
17171;SDS011;8701;50.150;8.756;2023-04-25T07:18:10;8.37;;;3.13;;
17171;SDS011;8701;50.150;8.756;2023-04-25T07:22:12;8.03;;;3.20;;
17171;SDS011;8701;50.150;8.756;2023-04-25T07:26:18;7.67;;;3.20;;
17171;SDS011;8701;50.150;8.756;2023-04-25T07:30:40;8.20;;;2.80;;
17171;SDS011;8701;50.150;8.756;2023-04-25T07:34:42;10.17;;;3.73;;
17171;SDS011;8701;50.150;8.756;2023-04-25T07:38:44;9.33;;;3.63;;
17171;SDS011;8701;50.150;8.756;2023-04-25T07:42:48;12.53;;;3.23;;
17171;SDS011;8701;50.150;8.756;2023-04-25T07:46:56;8.30;;;2.87;;
17171;SDS011;8701;50.150;8.756;2023-04-25T07:50:58;6.43;;;2.70;;
17171;SDS011;8701;50.150;8.756;2023-04-25T07:55:01;7.43;;;2.93;;
17171;SDS011;8701;50.150;8.756;2023-04-25T07:59:17;5.97;;;2.50;;
17171;SDS011;8701;50.150;8.756;2023-04-25T08:03:19;8.80;;;3.10;;
17171;SDS011;8701;50.150;8.756;2023-04-25T08:07:27;6.43;;;2.20;;
17171;SDS011;8701;50.150;8.756;2023-04-25T08:11:35;9.43;;;2.47;;
17171;SDS011;8701;50.150;8.756;2023-04-25T08:15:50;4.93;;;2.43;;
17171;SDS011;8701;50.150;8.756;2023-04-25T08:24:03;5.37;;;2.00;;
17171;SDS011;8701;50.150;8.756;2023-04-25T08:28:10;6.80;;;2.33;;
17171;SDS011;8701;50.150;8.756;2023-04-25T08:32:14;5.40;;;2.40;;
17171;SDS011;8701;50.150;8.756;2023-04-25T08:36:29;8.67;;;2.70;;
17171;SDS011;8701;50.150;8.756;2023-04-25T08:40:32;7.40;;;2.30;;
17171;SDS011;8701;50.150;8.756;2023-04-25T08:44:44;7.90;;;2.87;;
17171;SDS011;8701;50.150;8.756;2023-04-25T08:48:49;6.70;;;2.30;;
17171;SDS011;8701;50.150;8.756;2023-04-25T08:52:55;10.73;;;3.00;;
17171;SDS011;8701;50.150;8.756;2023-04-25T08:57:06;6.40;;;2.60;;
17171;SDS011;8701;50.150;8.756;2023-04-25T09:01:09;7.60;;;2.40;;
17171;SDS011;8701;50.150;8.756;2023-04-25T09:05:21;6.23;;;2.77;;
17171;SDS011;8701;50.150;8.756;2023-04-25T09:09:27;6.40;;;2.43;;
17171;SDS011;8701;50.150;8.756;2023-04-25T09:13:29;6.23;;;2.97;;
17171;SDS011;8701;50.150;8.756;2023-04-25T09:17:55;7.93;;;2.73;;
17171;SDS011;8701;50.150;8.756;2023-04-25T09:22:01;7.53;;;3.63;;
17171;SDS011;8701;50.150;8.756;2023-04-25T09:26:06;6.63;;;3.07;;
17171;SDS011;8701;50.150;8.756;2023-04-25T09:30:09;8.70;;;3.37;;
17171;SDS011;8701;50.150;8.756;2023-04-25T09:34:37;7.73;;;3.40;;
17171;SDS011;8701;50.150;8.756;2023-04-25T09:38:43;8.60;;;3.37;;
17171;SDS011;8701;50.150;8.756;2023-04-25T09:42:51;9.07;;;3.70;;
17171;SDS011;8701;50.150;8.756;2023-04-25T09:46:54;10.40;;;3.27;;
17171;SDS011;8701;50.150;8.756;2023-04-25T09:51:09;6.63;;;3.20;;
17171;SDS011;8701;50.150;8.756;2023-04-25T09:55:16;6.50;;;3.07;;
17171;SDS011;8701;50.150;8.756;2023-04-25T09:59:20;4.80;;;2.13;;
17171;SDS011;8701;50.150;8.756;2023-04-25T10:03:23;11.03;;;2.67;;
17171;SDS011;8701;50.150;8.756;2023-04-25T10:07:45;7.10;;;3.17;;
17171;SDS011;8701;50.150;8.756;2023-04-25T10:11:52;10.00;;;3.20;;
17171;SDS011;8701;50.150;8.756;2023-04-25T10:15:55;7.20;;;3.30;;
17171;SDS011;8701;50.150;8.756;2023-04-25T10:19:59;6.23;;;2.97;;
17171;SDS011;8701;50.150;8.756;2023-04-25T10:24:04;6.27;;;3.03;;
17171;SDS011;8701;50.150;8.756;2023-04-25T10:28:08;8.50;;;3.60;;
17171;SDS011;8701;50.150;8.756;2023-04-25T10:32:11;6.03;;;3.60;;
17171;SDS011;8701;50.150;8.756;2023-04-25T10:36:13;8.33;;;3.80;;
17171;SDS011;8701;50.150;8.756;2023-04-25T10:40:21;6.07;;;3.50;;
17171;SDS011;8701;50.150;8.756;2023-04-25T10:44:27;5.40;;;2.97;;
17171;SDS011;8701;50.150;8.756;2023-04-25T10:48:30;7.80;;;3.00;;
17171;SDS011;8701;50.150;8.756;2023-04-25T10:52:34;5.97;;;3.07;;
17171;SDS011;8701;50.150;8.756;2023-04-25T10:56:41;6.63;;;3.03;;
17171;SDS011;8701;50.150;8.756;2023-04-25T11:00:46;8.30;;;2.60;;
17171;SDS011;8701;50.150;8.756;2023-04-25T11:04:48;8.23;;;3.17;;
17171;SDS011;8701;50.150;8.756;2023-04-25T11:08:53;8.43;;;3.00;;
17171;SDS011;8701;50.150;8.756;2023-04-25T11:12:55;9.43;;;3.40;;
17171;SDS011;8701;50.150;8.756;2023-04-25T11:16:59;6.93;;;2.80;;
17171;SDS011;8701;50.150;8.756;2023-04-25T11:21:02;5.90;;;2.70;;
17171;SDS011;8701;50.150;8.756;2023-04-25T11:25:06;9.07;;;2.73;;
17171;SDS011;8701;50.150;8.756;2023-04-25T11:29:08;6.00;;;2.53;;
17171;SDS011;8701;50.150;8.756;2023-04-25T11:33:12;5.60;;;2.50;;
17171;SDS011;8701;50.150;8.756;2023-04-25T11:37:15;7.30;;;2.87;;
17171;SDS011;8701;50.150;8.756;2023-04-25T11:41:17;5.10;;;2.00;;
17171;SDS011;8701;50.150;8.756;2023-04-25T11:45:19;7.67;;;2.57;;
17171;SDS011;8701;50.150;8.756;2023-04-25T11:49:23;4.50;;;2.20;;
17171;SDS011;8701;50.150;8.756;2023-04-25T11:53:26;9.03;;;2.67;;
17171;SDS011;8701;50.150;8.756;2023-04-25T11:57:30;6.90;;;2.40;;
17171;SDS011;8701;50.150;8.756;2023-04-25T12:01:33;9.90;;;2.70;;
17171;SDS011;8701;50.150;8.756;2023-04-25T12:05:37;5.03;;;1.93;;
17171;SDS011;8701;50.150;8.756;2023-04-25T12:09:40;8.67;;;2.53;;
17171;SDS011;8701;50.150;8.756;2023-04-25T12:13:51;6.87;;;2.87;;
17171;SDS011;8701;50.150;8.756;2023-04-25T12:17:53;7.30;;;2.40;;
17171;SDS011;8701;50.150;8.756;2023-04-25T12:21:57;7.27;;;2.33;;
17171;SDS011;8701;50.150;8.756;2023-04-25T12:26:01;7.83;;;2.40;;
17171;SDS011;8701;50.150;8.756;2023-04-25T12:30:04;5.20;;;1.93;;
17171;SDS011;8701;50.150;8.756;2023-04-25T12:34:07;8.40;;;2.97;;
17171;SDS011;8701;50.150;8.756;2023-04-25T12:38:11;7.60;;;2.73;;
17171;SDS011;8701;50.150;8.756;2023-04-25T12:42:21;6.70;;;2.40;;
17171;SDS011;8701;50.150;8.756;2023-04-25T12:46:23;6.33;;;2.30;;
17171;SDS011;8701;50.150;8.756;2023-04-25T12:50:26;8.00;;;2.83;;
17171;SDS011;8701;50.150;8.756;2023-04-25T12:54:30;8.67;;;2.70;;
17171;SDS011;8701;50.150;8.756;2023-04-25T12:58:32;7.47;;;2.47;;
17171;SDS011;8701;50.150;8.756;2023-04-25T13:02:35;11.27;;;3.00;;
17171;SDS011;8701;50.150;8.756;2023-04-25T13:06:37;6.20;;;2.40;;
17171;SDS011;8701;50.150;8.756;2023-04-25T13:10:41;10.90;;;2.80;;
17171;SDS011;8701;50.150;8.756;2023-04-25T13:14:43;8.37;;;2.37;;
17171;SDS011;8701;50.150;8.756;2023-04-25T13:18:45;11.50;;;3.00;;
17171;SDS011;8701;50.150;8.756;2023-04-25T13:22:48;6.63;;;2.70;;
17171;SDS011;8701;50.150;8.756;2023-04-25T13:26:51;7.00;;;2.23;;
17171;SDS011;8701;50.150;8.756;2023-04-25T13:30:53;13.90;;;2.80;;
17171;SDS011;8701;50.150;8.756;2023-04-25T13:34:56;6.97;;;2.80;;
17171;SDS011;8701;50.150;8.756;2023-04-25T13:38:58;6.43;;;2.47;;
17171;SDS011;8701;50.150;8.756;2023-04-25T13:43:02;8.87;;;2.57;;
17171;SDS011;8701;50.150;8.756;2023-04-25T13:47:04;7.23;;;2.60;;
17171;SDS011;8701;50.150;8.756;2023-04-25T13:51:07;6.70;;;2.80;;
17171;SDS011;8701;50.150;8.756;2023-04-25T13:55:09;9.50;;;2.57;;
17171;SDS011;8701;50.150;8.756;2023-04-25T13:59:13;11.20;;;2.80;;
17171;SDS011;8701;50.150;8.756;2023-04-25T14:03:15;7.70;;;2.60;;
17171;SDS011;8701;50.150;8.756;2023-04-25T14:07:18;10.60;;;2.57;;
17171;SDS011;8701;50.150;8.756;2023-04-25T14:11:21;7.73;;;2.60;;
17171;SDS011;8701;50.150;8.756;2023-04-25T14:15:25;18.17;;;2.87;;
17171;SDS011;8701;50.150;8.756;2023-04-25T14:19:27;9.27;;;2.80;;
17171;SDS011;8701;50.150;8.756;2023-04-25T14:23:29;6.47;;;2.70;;
17171;SDS011;8701;50.150;8.756;2023-04-25T14:27:31;11.27;;;4.13;;
17171;SDS011;8701;50.150;8.756;2023-04-25T14:31:35;6.93;;;2.10;;
17171;SDS011;8701;50.150;8.756;2023-04-25T14:35:37;6.53;;;2.20;;
17171;SDS011;8701;50.150;8.756;2023-04-25T14:39:39;7.23;;;2.27;;
17171;SDS011;8701;50.150;8.756;2023-04-25T14:43:42;7.50;;;2.23;;
17171;SDS011;8701;50.150;8.756;2023-04-25T14:47:46;8.73;;;2.00;;
17171;SDS011;8701;50.150;8.756;2023-04-25T14:51:49;5.00;;;1.93;;
17171;SDS011;8701;50.150;8.756;2023-04-25T14:55:52;5.73;;;2.10;;
17171;SDS011;8701;50.150;8.756;2023-04-25T14:59:54;5.50;;;2.20;;
17171;SDS011;8701;50.150;8.756;2023-04-25T15:03:57;8.43;;;2.10;;
17171;SDS011;8701;50.150;8.756;2023-04-25T15:08:01;7.23;;;2.00;;
17171;SDS011;8701;50.150;8.756;2023-04-25T15:12:04;6.70;;;2.30;;
17171;SDS011;8701;50.150;8.756;2023-04-25T15:16:06;6.43;;;2.07;;
17171;SDS011;8701;50.150;8.756;2023-04-25T15:20:10;9.27;;;2.00;;
17171;SDS011;8701;50.150;8.756;2023-04-25T15:24:15;8.70;;;2.17;;
17171;SDS011;8701;50.150;8.756;2023-04-25T15:28:17;7.67;;;1.90;;
17171;SDS011;8701;50.150;8.756;2023-04-25T15:32:21;8.10;;;2.73;;
17171;SDS011;8701;50.150;8.756;2023-04-25T15:36:25;6.93;;;1.80;;
17171;SDS011;8701;50.150;8.756;2023-04-25T15:40:27;5.93;;;2.27;;
17171;SDS011;8701;50.150;8.756;2023-04-25T15:44:30;8.60;;;2.10;;
17171;SDS011;8701;50.150;8.756;2023-04-25T15:48:32;5.17;;;1.90;;
17171;SDS011;8701;50.150;8.756;2023-04-25T15:52:37;8.83;;;2.03;;
17171;SDS011;8701;50.150;8.756;2023-04-25T15:56:40;5.40;;;1.90;;
17171;SDS011;8701;50.150;8.756;2023-04-25T16:00:42;8.67;;;2.23;;
17171;SDS011;8701;50.150;8.756;2023-04-25T16:04:48;5.23;;;1.90;;
17171;SDS011;8701;50.150;8.756;2023-04-25T16:08:52;9.83;;;2.67;;
17171;SDS011;8701;50.150;8.756;2023-04-25T16:12:55;5.90;;;1.97;;
17171;SDS011;8701;50.150;8.756;2023-04-25T16:16:57;7.67;;;2.30;;
17171;SDS011;8701;50.150;8.756;2023-04-25T16:20:59;7.03;;;2.10;;
17171;SDS011;8701;50.150;8.756;2023-04-25T16:25:03;4.83;;;1.80;;
17171;SDS011;8701;50.150;8.756;2023-04-25T16:29:06;6.00;;;1.63;;
17171;SDS011;8701;50.150;8.756;2023-04-25T16:33:09;6.20;;;1.80;;
17171;SDS011;8701;50.150;8.756;2023-04-25T16:37:11;4.93;;;2.03;;
17171;SDS011;8701;50.150;8.756;2023-04-25T16:41:14;5.57;;;1.70;;
17171;SDS011;8701;50.150;8.756;2023-04-25T16:45:17;7.23;;;2.10;;
17171;SDS011;8701;50.150;8.756;2023-04-25T16:49:19;6.70;;;2.40;;
17171;SDS011;8701;50.150;8.756;2023-04-25T16:53:22;10.23;;;2.30;;
17171;SDS011;8701;50.150;8.756;2023-04-25T16:57:25;8.53;;;1.73;;
17171;SDS011;8701;50.150;8.756;2023-04-25T17:01:28;6.87;;;1.70;;
17171;SDS011;8701;50.150;8.756;2023-04-25T17:05:32;4.83;;;1.60;;
17171;SDS011;8701;50.150;8.756;2023-04-25T17:09:34;6.40;;;2.10;;
17171;SDS011;8701;50.150;8.756;2023-04-25T17:13:37;6.90;;;1.80;;
17171;SDS011;8701;50.150;8.756;2023-04-25T17:17:40;6.50;;;2.00;;
17171;SDS011;8701;50.150;8.756;2023-04-25T17:21:42;8.77;;;2.30;;
17171;SDS011;8701;50.150;8.756;2023-04-25T17:25:45;4.73;;;1.67;;
17171;SDS011;8701;50.150;8.756;2023-04-25T17:29:48;7.53;;;1.90;;
17171;SDS011;8701;50.150;8.756;2023-04-25T17:33:51;5.90;;;1.77;;
17171;SDS011;8701;50.150;8.756;2023-04-25T17:37:53;6.17;;;1.70;;
17171;SDS011;8701;50.150;8.756;2023-04-25T17:41:55;7.33;;;2.07;;
17171;SDS011;8701;50.150;8.756;2023-04-25T17:46:00;5.00;;;1.83;;
17171;SDS011;8701;50.150;8.756;2023-04-25T17:50:02;10.03;;;1.77;;
17171;SDS011;8701;50.150;8.756;2023-04-25T17:54:05;6.00;;;1.53;;
17171;SDS011;8701;50.150;8.756;2023-04-25T17:58:07;9.73;;;2.00;;
17171;SDS011;8701;50.150;8.756;2023-04-25T18:02:12;6.43;;;2.10;;
17171;SDS011;8701;50.150;8.756;2023-04-25T18:06:15;9.00;;;1.80;;
17171;SDS011;8701;50.150;8.756;2023-04-25T18:10:18;4.20;;;1.60;;
17171;SDS011;8701;50.150;8.756;2023-04-25T18:14:21;5.90;;;2.00;;
17171;SDS011;8701;50.150;8.756;2023-04-25T18:18:25;8.43;;;1.83;;
17171;SDS011;8701;50.150;8.756;2023-04-25T18:22:32;6.00;;;1.90;;
17171;SDS011;8701;50.150;8.756;2023-04-25T18:26:35;8.17;;;2.10;;
17171;SDS011;8701;50.150;8.756;2023-04-25T18:30:37;9.00;;;2.00;;
17171;SDS011;8701;50.150;8.756;2023-04-25T18:34:41;5.30;;;1.70;;
17171;SDS011;8701;50.150;8.756;2023-04-25T18:38:45;5.70;;;1.87;;
17171;SDS011;8701;50.150;8.756;2023-04-25T18:42:49;5.13;;;1.77;;
17171;SDS011;8701;50.150;8.756;2023-04-25T18:46:52;4.90;;;1.50;;
17171;SDS011;8701;50.150;8.756;2023-04-25T18:50:55;12.80;;;2.10;;
17171;SDS011;8701;50.150;8.756;2023-04-25T18:54:57;6.63;;;1.57;;
17171;SDS011;8701;50.150;8.756;2023-04-25T18:59:00;5.47;;;1.77;;
17171;SDS011;8701;50.150;8.756;2023-04-25T19:03:02;6.13;;;1.80;;
17171;SDS011;8701;50.150;8.756;2023-04-25T19:07:07;7.40;;;1.90;;
17171;SDS011;8701;50.150;8.756;2023-04-25T19:11:09;6.77;;;1.90;;
17171;SDS011;8701;50.150;8.756;2023-04-25T19:15:11;5.70;;;1.70;;
17171;SDS011;8701;50.150;8.756;2023-04-25T19:19:13;6.77;;;1.73;;
17171;SDS011;8701;50.150;8.756;2023-04-25T19:23:17;6.60;;;1.63;;
17171;SDS011;8701;50.150;8.756;2023-04-25T19:27:19;4.67;;;1.43;;
17171;SDS011;8701;50.150;8.756;2023-04-25T19:31:22;8.50;;;2.03;;
17171;SDS011;8701;50.150;8.756;2023-04-25T19:35:24;5.33;;;1.53;;
17171;SDS011;8701;50.150;8.756;2023-04-25T19:39:31;7.00;;;1.77;;
17171;SDS011;8701;50.150;8.756;2023-04-25T19:43:34;9.23;;;2.03;;
17171;SDS011;8701;50.150;8.756;2023-04-25T19:47:36;5.27;;;2.03;;
17171;SDS011;8701;50.150;8.756;2023-04-25T19:51:39;5.10;;;1.90;;
17171;SDS011;8701;50.150;8.756;2023-04-25T19:55:42;6.67;;;2.00;;
17171;SDS011;8701;50.150;8.756;2023-04-25T19:59:45;6.43;;;1.80;;
17171;SDS011;8701;50.150;8.756;2023-04-25T20:03:47;6.90;;;2.27;;
17171;SDS011;8701;50.150;8.756;2023-04-25T20:07:54;7.90;;;2.20;;
17171;SDS011;8701;50.150;8.756;2023-04-25T20:11:58;8.63;;;2.10;;
17171;SDS011;8701;50.150;8.756;2023-04-25T20:16:00;6.20;;;2.03;;
17171;SDS011;8701;50.150;8.756;2023-04-25T20:20:02;8.30;;;2.20;;
17171;SDS011;8701;50.150;8.756;2023-04-25T20:24:06;9.93;;;2.90;;
17171;SDS011;8701;50.150;8.756;2023-04-25T20:28:09;7.10;;;2.90;;
17171;SDS011;8701;50.150;8.756;2023-04-25T20:32:11;5.50;;;2.50;;
17171;SDS011;8701;50.150;8.756;2023-04-25T20:36:14;5.37;;;2.43;;
17171;SDS011;8701;50.150;8.756;2023-04-25T20:40:16;7.13;;;2.57;;
17171;SDS011;8701;50.150;8.756;2023-04-25T20:44:20;4.13;;;1.67;;
17171;SDS011;8701;50.150;8.756;2023-04-25T20:48:23;5.57;;;1.80;;
17171;SDS011;8701;50.150;8.756;2023-04-25T20:52:25;6.30;;;1.83;;
17171;SDS011;8701;50.150;8.756;2023-04-25T20:56:27;6.47;;;3.23;;
17171;SDS011;8701;50.150;8.756;2023-04-25T21:00:32;6.70;;;3.50;;
17171;SDS011;8701;50.150;8.756;2023-04-25T21:04:34;9.03;;;3.07;;
17171;SDS011;8701;50.150;8.756;2023-04-25T21:08:37;4.97;;;1.70;;
17171;SDS011;8701;50.150;8.756;2023-04-25T21:12:39;6.40;;;2.43;;
17171;SDS011;8701;50.150;8.756;2023-04-25T21:16:44;9.50;;;2.77;;
17171;SDS011;8701;50.150;8.756;2023-04-25T21:20:47;7.90;;;1.93;;
17171;SDS011;8701;50.150;8.756;2023-04-25T21:24:49;5.30;;;1.90;;
17171;SDS011;8701;50.150;8.756;2023-04-25T21:28:56;6.10;;;1.67;;
17171;SDS011;8701;50.150;8.756;2023-04-25T21:33:00;5.33;;;1.47;;
17171;SDS011;8701;50.150;8.756;2023-04-25T21:37:03;5.67;;;1.70;;
17171;SDS011;8701;50.150;8.756;2023-04-25T21:41:06;7.67;;;1.97;;
17171;SDS011;8701;50.150;8.756;2023-04-25T21:45:08;9.20;;;1.83;;
17171;SDS011;8701;50.150;8.756;2023-04-25T21:49:12;5.20;;;2.00;;
17171;SDS011;8701;50.150;8.756;2023-04-25T21:53:14;6.23;;;1.47;;
17171;SDS011;8701;50.150;8.756;2023-04-25T21:57:17;7.80;;;1.73;;
17171;SDS011;8701;50.150;8.756;2023-04-25T22:01:21;6.60;;;1.90;;
17171;SDS011;8701;50.150;8.756;2023-04-25T22:05:26;4.37;;;1.50;;
17171;SDS011;8701;50.150;8.756;2023-04-25T22:09:29;7.03;;;1.80;;
17171;SDS011;8701;50.150;8.756;2023-04-25T22:13:32;6.83;;;2.03;;
17171;SDS011;8701;50.150;8.756;2023-04-25T22:17:35;6.50;;;1.70;;
17171;SDS011;8701;50.150;8.756;2023-04-25T22:21:39;6.13;;;2.10;;
17171;SDS011;8701;50.150;8.756;2023-04-25T22:25:41;4.60;;;1.60;;
17171;SDS011;8701;50.150;8.756;2023-04-25T22:29:44;4.77;;;1.60;;
17171;SDS011;8701;50.150;8.756;2023-04-25T22:33:46;4.93;;;1.80;;
17171;SDS011;8701;50.150;8.756;2023-04-25T22:37:50;8.27;;;2.03;;
17171;SDS011;8701;50.150;8.756;2023-04-25T22:41:52;5.83;;;1.57;;
17171;SDS011;8701;50.150;8.756;2023-04-25T22:45:55;7.20;;;1.93;;
17171;SDS011;8701;50.150;8.756;2023-04-25T22:49:58;6.97;;;2.00;;
17171;SDS011;8701;50.150;8.756;2023-04-25T22:54:04;4.20;;;1.57;;
17171;SDS011;8701;50.150;8.756;2023-04-25T22:58:07;5.80;;;1.60;;
17171;SDS011;8701;50.150;8.756;2023-04-25T23:02:09;7.13;;;1.93;;
17171;SDS011;8701;50.150;8.756;2023-04-25T23:06:13;12.23;;;1.57;;
17171;SDS011;8701;50.150;8.756;2023-04-25T23:10:16;5.87;;;1.83;;
17171;SDS011;8701;50.150;8.756;2023-04-25T23:14:19;9.13;;;1.80;;
17171;SDS011;8701;50.150;8.756;2023-04-25T23:18:21;7.43;;;1.90;;
17171;SDS011;8701;50.150;8.756;2023-04-25T23:22:23;9.50;;;2.10;;
17171;SDS011;8701;50.150;8.756;2023-04-25T23:26:27;5.13;;;1.70;;
17171;SDS011;8701;50.150;8.756;2023-04-25T23:30:29;8.40;;;1.80;;
17171;SDS011;8701;50.150;8.756;2023-04-25T23:34:31;5.20;;;1.67;;
17171;SDS011;8701;50.150;8.756;2023-04-25T23:38:34;6.90;;;1.77;;
17171;SDS011;8701;50.150;8.756;2023-04-25T23:42:38;5.70;;;1.80;;
17171;SDS011;8701;50.150;8.756;2023-04-25T23:46:41;4.63;;;1.50;;
17171;SDS011;8701;50.150;8.756;2023-04-25T23:50:43;5.80;;;1.60;;
17171;SDS011;8701;50.150;8.756;2023-04-25T23:54:45;5.30;;;1.70;;
17171;SDS011;8701;50.150;8.756;2023-04-25T23:58:49;6.83;;;1.80;;
